sensor_id;sensor_type;location;lat;lon;timestamp;P1;P4;P2;P0;N10;N4;N25;N1;N05;TS
62702;SPS30;66022;50.448;18.122;2023-04-15T00:03:11;26.84;;26.79;;;;;;;
62702;SPS30;66022;50.448;18.122;2023-04-15T00:07:25;46.33;;43.90;;;;;;;
62702;SPS30;66022;50.448;18.122;2023-04-15T00:11:39;46.33;;43.90;;;;;;;
62702;SPS30;66022;50.448;18.122;2023-04-15T00:15:53;63.56;;60.27;;;;;;;
62702;SPS30;66022;50.448;18.122;2023-04-15T00:20:07;63.56;;60.27;;;;;;;
62702;SPS30;66022;50.448;18.122;2023-04-15T00:24:21;56.13;;53.60;;;;;;;
62702;SPS30;66022;50.448;18.122;2023-04-15T00:28:35;56.13;;53.60;;;;;;;
62702;SPS30;66022;50.448;18.122;2023-04-15T00:32:49;56.13;;53.60;;;;;;;
62702;SPS30;66022;50.448;18.122;2023-04-15T00:37:03;57.28;;55.09;;;;;;;
62702;SPS30;66022;50.448;18.122;2023-04-15T00:41:17;57.28;;55.09;;;;;;;
62702;SPS30;66022;50.448;18.122;2023-04-15T00:45:31;56.32;;54.00;;;;;;;
62702;SPS30;66022;50.448;18.122;2023-04-15T00:49:45;56.32;;54.00;;;;;;;
62702;SPS30;66022;50.448;18.122;2023-04-15T00:53:59;56.32;;54.00;;;;;;;
62702;SPS30;66022;50.448;18.122;2023-04-15T00:58:13;66.49;;60.78;;;;;;;
62702;SPS30;66022;50.448;18.122;2023-04-15T01:02:27;66.49;;60.78;;;;;;;
62702;SPS30;66022;50.448;18.122;2023-04-15T01:06:41;63.06;;59.59;;;;;;;
62702;SPS30;66022;50.448;18.122;2023-04-15T01:10:55;63.06;;59.59;;;;;;;
62702;SPS30;66022;50.448;18.122;2023-04-15T01:15:09;68.77;;61.25;;;;;;;
62702;SPS30;66022;50.448;18.122;2023-04-15T01:19:23;68.77;;61.25;;;;;;;
62702;SPS30;66022;50.448;18.122;2023-04-15T01:23:37;68.77;;61.25;;;;;;;
62702;SPS30;66022;50.448;18.122;2023-04-15T01:27:51;69.68;;62.28;;;;;;;
62702;SPS30;66022;50.448;18.122;2023-04-15T01:32:05;69.68;;62.28;;;;;;;
62702;SPS30;66022;50.448;18.122;2023-04-15T01:36:19;66.78;;61.41;;;;;;;
62702;SPS30;66022;50.448;18.122;2023-04-15T01:40:33;66.78;;61.41;;;;;;;
62702;SPS30;66022;50.448;18.122;2023-04-15T01:44:47;67.14;;58.59;;;;;;;
62702;SPS30;66022;50.448;18.122;2023-04-15T01:49:01;67.14;;58.59;;;;;;;
62702;SPS30;66022;50.448;18.122;2023-04-15T01:53:15;67.14;;58.59;;;;;;;
62702;SPS30;66022;50.448;18.122;2023-04-15T01:57:29;50.51;;48.44;;;;;;;
62702;SPS30;66022;50.448;18.122;2023-04-15T02:01:43;50.51;;48.44;;;;;;;
62702;SPS30;66022;50.448;18.122;2023-04-15T02:05:57;34.70;;32.31;;;;;;;
62702;SPS30;66022;50.448;18.122;2023-04-15T02:10:11;34.70;;32.31;;;;;;;
62702;SPS30;66022;50.448;18.122;2023-04-15T02:14:25;26.93;;25.89;;;;;;;
62702;SPS30;66022;50.448;18.122;2023-04-15T02:18:39;26.93;;25.89;;;;;;;
62702;SPS30;66022;50.448;18.122;2023-04-15T02:22:53;26.93;;25.89;;;;;;;
62702;SPS30;66022;50.448;18.122;2023-04-15T02:27:07;16.16;;15.59;;;;;;;
62702;SPS30;66022;50.448;18.122;2023-04-15T02:31:21;16.16;;15.59;;;;;;;
62702;SPS30;66022;50.448;18.122;2023-04-15T02:35:35;11.14;;11.13;;;;;;;
62702;SPS30;66022;50.448;18.122;2023-04-15T02:39:49;11.14;;11.13;;;;;;;
62702;SPS30;66022;50.448;18.122;2023-04-15T02:44:03;11.14;;11.13;;;;;;;
62702;SPS30;66022;50.448;18.122;2023-04-15T02:48:17;8.21;;8.21;;;;;;;
62702;SPS30;66022;50.448;18.122;2023-04-15T02:52:31;8.21;;8.21;;;;;;;
62702;SPS30;66022;50.448;18.122;2023-04-15T02:56:45;6.15;;6.15;;;;;;;
62702;SPS30;66022;50.448;18.122;2023-04-15T03:00:59;6.15;;6.15;;;;;;;
62702;SPS30;66022;50.448;18.122;2023-04-15T03:05:13;8.00;;7.69;;;;;;;
62702;SPS30;66022;50.448;18.122;2023-04-15T03:09:27;8.00;;7.69;;;;;;;
62702;SPS30;66022;50.448;18.122;2023-04-15T03:13:41;8.00;;7.69;;;;;;;
62702;SPS30;66022;50.448;18.122;2023-04-15T03:17:55;7.70;;7.48;;;;;;;
62702;SPS30;66022;50.448;18.122;2023-04-15T03:22:09;7.70;;7.48;;;;;;;
62702;SPS30;66022;50.448;18.122;2023-04-15T03:26:27;7.62;;6.85;;;;;;;
62702;SPS30;66022;50.448;18.122;2023-04-15T03:30:37;7.62;;6.85;;;;;;;
62702;SPS30;66022;50.448;18.122;2023-04-15T03:34:51;7.77;;7.12;;;;;;;
62702;SPS30;66022;50.448;18.122;2023-04-15T03:39:05;7.77;;7.12;;;;;;;
62702;SPS30;66022;50.448;18.122;2023-04-15T03:43:19;7.77;;7.12;;;;;;;
62702;SPS30;66022;50.448;18.122;2023-04-15T03:47:34;14.36;;13.21;;;;;;;
62702;SPS30;66022;50.448;18.122;2023-04-15T03:51:47;14.36;;13.21;;;;;;;
62702;SPS30;66022;50.448;18.122;2023-04-15T03:56:01;14.73;;13.18;;;;;;;
62702;SPS30;66022;50.448;18.122;2023-04-15T04:00:16;14.73;;13.18;;;;;;;
62702;SPS30;66022;50.448;18.122;2023-04-15T04:04:30;14.45;;14.28;;;;;;;
62702;SPS30;66022;50.448;18.122;2023-04-15T04:08:43;14.45;;14.28;;;;;;;
62702;SPS30;66022;50.448;18.122;2023-04-15T04:12:57;14.45;;14.28;;;;;;;
62702;SPS30;66022;50.448;18.122;2023-04-15T04:17:11;15.63;;15.30;;;;;;;
62702;SPS30;66022;50.448;18.122;2023-04-15T04:21:25;15.63;;15.30;;;;;;;
62702;SPS30;66022;50.448;18.122;2023-04-15T04:25:39;18.29;;16.50;;;;;;;
62702;SPS30;66022;50.448;18.122;2023-04-15T04:29:53;18.29;;16.50;;;;;;;
62702;SPS30;66022;50.448;18.122;2023-04-15T04:34:07;18.29;;16.50;;;;;;;
62702;SPS30;66022;50.448;18.122;2023-04-15T04:38:21;17.46;;17.08;;;;;;;
62702;SPS30;66022;50.448;18.122;2023-04-15T04:42:35;17.46;;17.08;;;;;;;
62702;SPS30;66022;50.448;18.122;2023-04-15T04:46:49;18.35;;17.68;;;;;;;
62702;SPS30;66022;50.448;18.122;2023-04-15T04:51:03;18.35;;17.68;;;;;;;
62702;SPS30;66022;50.448;18.122;2023-04-15T04:55:18;17.03;;15.95;;;;;;;
62702;SPS30;66022;50.448;18.122;2023-04-15T04:59:31;17.03;;15.95;;;;;;;
62702;SPS30;66022;50.448;18.122;2023-04-15T05:03:45;17.03;;15.95;;;;;;;
62702;SPS30;66022;50.448;18.122;2023-04-15T05:07:59;16.04;;14.40;;;;;;;
62702;SPS30;66022;50.448;18.122;2023-04-15T05:12:13;16.04;;14.40;;;;;;;
62702;SPS30;66022;50.448;18.122;2023-04-15T05:16:27;9.59;;8.94;;;;;;;
62702;SPS30;66022;50.448;18.122;2023-04-15T05:20:42;9.59;;8.94;;;;;;;
62702;SPS30;66022;50.448;18.122;2023-04-15T05:24:55;8.76;;8.23;;;;;;;
62702;SPS30;66022;50.448;18.122;2023-04-15T05:29:10;8.76;;8.23;;;;;;;
62702;SPS30;66022;50.448;18.122;2023-04-15T05:33:23;8.76;;8.23;;;;;;;
62702;SPS30;66022;50.448;18.122;2023-04-15T05:37:37;9.22;;8.83;;;;;;;
62702;SPS30;66022;50.448;18.122;2023-04-15T05:41:51;9.22;;8.83;;;;;;;
62702;SPS30;66022;50.448;18.122;2023-04-15T05:46:05;15.46;;14.36;;;;;;;
62702;SPS30;66022;50.448;18.122;2023-04-15T05:50:19;15.46;;14.36;;;;;;;
62702;SPS30;66022;50.448;18.122;2023-04-15T05:54:33;14.62;;13.73;;;;;;;
62702;SPS30;66022;50.448;18.122;2023-04-15T05:58:47;14.62;;13.73;;;;;;;
62702;SPS30;66022;50.448;18.122;2023-04-15T06:03:01;14.62;;13.73;;;;;;;
62702;SPS30;66022;50.448;18.122;2023-04-15T06:07:15;10.48;;10.08;;;;;;;
62702;SPS30;66022;50.448;18.122;2023-04-15T06:11:29;10.48;;10.08;;;;;;;
62702;SPS30;66022;50.448;18.122;2023-04-15T06:15:43;9.83;;9.22;;;;;;;
62702;SPS30;66022;50.448;18.122;2023-04-15T06:19:57;9.83;;9.22;;;;;;;
62702;SPS30;66022;50.448;18.122;2023-04-15T06:24:11;9.83;;9.22;;;;;;;
62702;SPS30;66022;50.448;18.122;2023-04-15T06:28:26;6.56;;6.38;;;;;;;
62702;SPS30;66022;50.448;18.122;2023-04-15T06:32:40;6.56;;6.38;;;;;;;
62702;SPS30;66022;50.448;18.122;2023-04-15T06:36:53;10.86;;9.92;;;;;;;
62702;SPS30;66022;50.448;18.122;2023-04-15T06:41:08;10.86;;9.92;;;;;;;
62702;SPS30;66022;50.448;18.122;2023-04-15T06:45:22;13.98;;13.53;;;;;;;
62702;SPS30;66022;50.448;18.122;2023-04-15T06:49:35;13.98;;13.53;;;;;;;
62702;SPS30;66022;50.448;18.122;2023-04-15T06:53:50;13.98;;13.53;;;;;;;
62702;SPS30;66022;50.448;18.122;2023-04-15T06:58:04;14.98;;13.25;;;;;;;
62702;SPS30;66022;50.448;18.122;2023-04-15T07:02:18;14.98;;13.25;;;;;;;
62702;SPS30;66022;50.448;18.122;2023-04-15T07:06:32;17.41;;14.52;;;;;;;
62702;SPS30;66022;50.448;18.122;2023-04-15T07:10:46;17.41;;14.52;;;;;;;
62702;SPS30;66022;50.448;18.122;2023-04-15T07:15:00;14.67;;13.50;;;;;;;
62702;SPS30;66022;50.448;18.122;2023-04-15T07:19:14;14.67;;13.50;;;;;;;
62702;SPS30;66022;50.448;18.122;2023-04-15T07:23:28;14.67;;13.50;;;;;;;
62702;SPS30;66022;50.448;18.122;2023-04-15T07:27:42;20.32;;18.49;;;;;;;
62702;SPS30;66022;50.448;18.122;2023-04-15T07:31:57;20.32;;18.49;;;;;;;
62702;SPS30;66022;50.448;18.122;2023-04-15T07:36:10;14.74;;14.21;;;;;;;
62702;SPS30;66022;50.448;18.122;2023-04-15T07:40:24;14.74;;14.21;;;;;;;
62702;SPS30;66022;50.448;18.122;2023-04-15T07:44:38;5.66;;5.66;;;;;;;
62702;SPS30;66022;50.448;18.122;2023-04-15T07:48:52;5.66;;5.66;;;;;;;
62702;SPS30;66022;50.448;18.122;2023-04-15T07:53:06;5.66;;5.66;;;;;;;
62702;SPS30;66022;50.448;18.122;2023-04-15T07:57:20;4.08;;3.76;;;;;;;
62702;SPS30;66022;50.448;18.122;2023-04-15T08:01:34;4.08;;3.76;;;;;;;
62702;SPS30;66022;50.448;18.122;2023-04-15T08:05:48;4.94;;4.30;;;;;;;
62702;SPS30;66022;50.448;18.122;2023-04-15T08:10:02;4.94;;4.30;;;;;;;
62702;SPS30;66022;50.448;18.122;2023-04-15T08:14:15;5.10;;4.44;;;;;;;
62702;SPS30;66022;50.448;18.122;2023-04-15T08:18:30;5.10;;4.44;;;;;;;
62702;SPS30;66022;50.448;18.122;2023-04-15T08:22:43;5.10;;4.44;;;;;;;
62702;SPS30;66022;50.448;18.122;2023-04-15T08:26:58;5.50;;5.37;;;;;;;
62702;SPS30;66022;50.448;18.122;2023-04-15T08:31:12;5.50;;5.37;;;;;;;
62702;SPS30;66022;50.448;18.122;2023-04-15T08:35:26;5.39;;4.79;;;;;;;
62702;SPS30;66022;50.448;18.122;2023-04-15T08:39:40;5.39;;4.79;;;;;;;
62702;SPS30;66022;50.448;18.122;2023-04-15T08:43:57;5.39;;4.79;;;;;;;
62702;SPS30;66022;50.448;18.122;2023-04-15T08:48:08;9.09;;7.18;;;;;;;
62702;SPS30;66022;50.448;18.122;2023-04-15T08:52:23;9.09;;7.18;;;;;;;
62702;SPS30;66022;50.448;18.122;2023-04-15T08:56:37;3.49;;3.12;;;;;;;
62702;SPS30;66022;50.448;18.122;2023-04-15T09:00:50;3.49;;3.12;;;;;;;
62702;SPS30;66022;50.448;18.122;2023-04-15T09:05:04;3.39;;3.32;;;;;;;
62702;SPS30;66022;50.448;18.122;2023-04-15T09:09:18;3.39;;3.32;;;;;;;
62702;SPS30;66022;50.448;18.122;2023-04-15T09:13:32;3.39;;3.32;;;;;;;
62702;SPS30;66022;50.448;18.122;2023-04-15T09:17:46;2.57;;2.57;;;;;;;
62702;SPS30;66022;50.448;18.122;2023-04-15T09:22:00;2.57;;2.57;;;;;;;
62702;SPS30;66022;50.448;18.122;2023-04-15T09:26:14;2.95;;2.95;;;;;;;
62702;SPS30;66022;50.448;18.122;2023-04-15T09:30:28;2.95;;2.95;;;;;;;
62702;SPS30;66022;50.448;18.122;2023-04-15T09:34:42;4.37;;4.04;;;;;;;
62702;SPS30;66022;50.448;18.122;2023-04-15T09:38:56;4.37;;4.04;;;;;;;
62702;SPS30;66022;50.448;18.122;2023-04-15T09:43:10;4.37;;4.04;;;;;;;
62702;SPS30;66022;50.448;18.122;2023-04-15T09:47:27;3.80;;3.80;;;;;;;
62702;SPS30;66022;50.448;18.122;2023-04-15T09:51:38;3.80;;3.80;;;;;;;
62702;SPS30;66022;50.448;18.122;2023-04-15T09:55:52;3.19;;3.02;;;;;;;
62702;SPS30;66022;50.448;18.122;2023-04-15T10:00:06;3.19;;3.02;;;;;;;
62702;SPS30;66022;50.448;18.122;2023-04-15T10:04:20;3.56;;3.56;;;;;;;
62702;SPS30;66022;50.448;18.122;2023-04-15T10:08:34;3.56;;3.56;;;;;;;
62702;SPS30;66022;50.448;18.122;2023-04-15T10:12:48;3.56;;3.56;;;;;;;
62702;SPS30;66022;50.448;18.122;2023-04-15T10:17:02;4.72;;4.35;;;;;;;
62702;SPS30;66022;50.448;18.122;2023-04-15T10:21:16;4.72;;4.35;;;;;;;
62702;SPS30;66022;50.448;18.122;2023-04-15T10:25:30;3.08;;3.08;;;;;;;
62702;SPS30;66022;50.448;18.122;2023-04-15T10:29:44;3.08;;3.08;;;;;;;
62702;SPS30;66022;50.448;18.122;2023-04-15T10:33:58;3.08;;3.08;;;;;;;
62702;SPS30;66022;50.448;18.122;2023-04-15T10:42:32;3.49;;3.27;;;;;;;
62702;SPS30;66022;50.448;18.122;2023-04-15T10:46:40;3.21;;3.21;;;;;;;
62702;SPS30;66022;50.448;18.122;2023-04-15T10:50:57;3.21;;3.21;;;;;;;
62702;SPS30;66022;50.448;18.122;2023-04-15T10:55:12;3.19;;3.19;;;;;;;
62702;SPS30;66022;50.448;18.122;2023-04-15T10:59:22;3.19;;3.19;;;;;;;
62702;SPS30;66022;50.448;18.122;2023-04-15T11:03:36;3.19;;3.19;;;;;;;
62702;SPS30;66022;50.448;18.122;2023-04-15T11:07:51;3.31;;3.31;;;;;;;
62702;SPS30;66022;50.448;18.122;2023-04-15T11:12:07;3.31;;3.31;;;;;;;
62702;SPS30;66022;50.448;18.122;2023-04-15T11:16:18;4.05;;4.03;;;;;;;
62702;SPS30;66022;50.448;18.122;2023-04-15T11:20:32;4.05;;4.03;;;;;;;
62702;SPS30;66022;50.448;18.122;2023-04-15T11:24:46;3.85;;3.24;;;;;;;
62702;SPS30;66022;50.448;18.122;2023-04-15T11:29:00;3.85;;3.24;;;;;;;
62702;SPS30;66022;50.448;18.122;2023-04-15T11:33:14;3.85;;3.24;;;;;;;
62702;SPS30;66022;50.448;18.122;2023-04-15T11:37:28;3.21;;3.21;;;;;;;
62702;SPS30;66022;50.448;18.122;2023-04-15T11:41:42;3.21;;3.21;;;;;;;
62702;SPS30;66022;50.448;18.122;2023-04-15T11:45:56;2.77;;2.77;;;;;;;
62702;SPS30;66022;50.448;18.122;2023-04-15T11:54:24;2.69;;2.69;;;;;;;
62702;SPS30;66022;50.448;18.122;2023-04-15T11:58:38;2.69;;2.69;;;;;;;
62702;SPS30;66022;50.448;18.122;2023-04-15T12:03:10;2.69;;2.69;;;;;;;
62702;SPS30;66022;50.448;18.122;2023-04-15T12:07:06;4.91;;4.66;;;;;;;
62702;SPS30;66022;50.448;18.122;2023-04-15T12:15:36;2.52;;2.52;;;;;;;
62702;SPS30;66022;50.448;18.122;2023-04-15T12:19:48;2.52;;2.52;;;;;;;
62702;SPS30;66022;50.448;18.122;2023-04-15T12:24:03;2.52;;2.52;;;;;;;
62702;SPS30;66022;50.448;18.122;2023-04-15T12:28:16;4.27;;3.58;;;;;;;
62702;SPS30;66022;50.448;18.122;2023-04-15T12:32:33;4.27;;3.58;;;;;;;
62702;SPS30;66022;50.448;18.122;2023-04-15T12:36:44;3.70;;3.70;;;;;;;
62702;SPS30;66022;50.448;18.122;2023-04-15T12:40:58;3.70;;3.70;;;;;;;
62702;SPS30;66022;50.448;18.122;2023-04-15T12:45:12;4.64;;4.37;;;;;;;
62702;SPS30;66022;50.448;18.122;2023-04-15T12:49:26;4.64;;4.37;;;;;;;
62702;SPS30;66022;50.448;18.122;2023-04-15T12:53:40;4.64;;4.37;;;;;;;
62702;SPS30;66022;50.448;18.122;2023-04-15T12:57:54;4.12;;4.12;;;;;;;
62702;SPS30;66022;50.448;18.122;2023-04-15T13:02:08;4.12;;4.12;;;;;;;
62702;SPS30;66022;50.448;18.122;2023-04-15T13:06:22;3.48;;3.34;;;;;;;
62702;SPS30;66022;50.448;18.122;2023-04-15T13:10:36;3.48;;3.34;;;;;;;
62702;SPS30;66022;50.448;18.122;2023-04-15T13:14:50;3.13;;3.13;;;;;;;
62702;SPS30;66022;50.448;18.122;2023-04-15T13:19:04;3.13;;3.13;;;;;;;
62702;SPS30;66022;50.448;18.122;2023-04-15T13:23:21;3.13;;3.13;;;;;;;
62702;SPS30;66022;50.448;18.122;2023-04-15T13:27:32;2.98;;2.98;;;;;;;
62702;SPS30;66022;50.448;18.122;2023-04-15T13:31:46;2.98;;2.98;;;;;;;
62702;SPS30;66022;50.448;18.122;2023-04-15T13:36:00;4.84;;4.42;;;;;;;
62702;SPS30;66022;50.448;18.122;2023-04-15T13:40:14;4.84;;4.42;;;;;;;
62702;SPS30;66022;50.448;18.122;2023-04-15T13:44:28;5.04;;5.04;;;;;;;
62702;SPS30;66022;50.448;18.122;2023-04-15T13:48:42;5.04;;5.04;;;;;;;
62702;SPS30;66022;50.448;18.122;2023-04-15T13:52:56;5.04;;5.04;;;;;;;
62702;SPS30;66022;50.448;18.122;2023-04-15T13:57:10;5.27;;4.97;;;;;;;
62702;SPS30;66022;50.448;18.122;2023-04-15T14:01:24;5.27;;4.97;;;;;;;
62702;SPS30;66022;50.448;18.122;2023-04-15T14:05:38;5.65;;5.65;;;;;;;
62702;SPS30;66022;50.448;18.122;2023-04-15T14:09:52;5.65;;5.65;;;;;;;
62702;SPS30;66022;50.448;18.122;2023-04-15T14:14:06;5.65;;5.65;;;;;;;
62702;SPS30;66022;50.448;18.122;2023-04-15T14:18:20;4.21;;4.13;;;;;;;
62702;SPS30;66022;50.448;18.122;2023-04-15T14:22:34;4.21;;4.13;;;;;;;
62702;SPS30;66022;50.448;18.122;2023-04-15T14:26:48;6.28;;6.06;;;;;;;
62702;SPS30;66022;50.448;18.122;2023-04-15T14:31:02;6.28;;6.06;;;;;;;
62702;SPS30;66022;50.448;18.122;2023-04-15T14:35:16;4.73;;4.73;;;;;;;
62702;SPS30;66022;50.448;18.122;2023-04-15T14:39:30;4.73;;4.73;;;;;;;
62702;SPS30;66022;50.448;18.122;2023-04-15T14:43:44;4.73;;4.73;;;;;;;
62702;SPS30;66022;50.448;18.122;2023-04-15T14:47:58;5.39;;5.39;;;;;;;
62702;SPS30;66022;50.448;18.122;2023-04-15T14:52:12;5.39;;5.39;;;;;;;
62702;SPS30;66022;50.448;18.122;2023-04-15T14:56:26;8.15;;7.98;;;;;;;
62702;SPS30;66022;50.448;18.122;2023-04-15T15:00:40;8.15;;7.98;;;;;;;
62702;SPS30;66022;50.448;18.122;2023-04-15T15:04:54;10.65;;10.49;;;;;;;
62702;SPS30;66022;50.448;18.122;2023-04-15T15:09:08;10.65;;10.49;;;;;;;
62702;SPS30;66022;50.448;18.122;2023-04-15T15:13:22;10.65;;10.49;;;;;;;
62702;SPS30;66022;50.448;18.122;2023-04-15T15:17:36;5.02;;4.74;;;;;;;
62702;SPS30;66022;50.448;18.122;2023-04-15T15:21:50;5.02;;4.74;;;;;;;
62702;SPS30;66022;50.448;18.122;2023-04-15T15:26:04;9.47;;9.23;;;;;;;
62702;SPS30;66022;50.448;18.122;2023-04-15T15:30:18;9.47;;9.23;;;;;;;
62702;SPS30;66022;50.448;18.122;2023-04-15T15:34:32;4.86;;4.86;;;;;;;
62702;SPS30;66022;50.448;18.122;2023-04-15T15:38:46;4.86;;4.86;;;;;;;
62702;SPS30;66022;50.448;18.122;2023-04-15T15:43:00;4.86;;4.86;;;;;;;
62702;SPS30;66022;50.448;18.122;2023-04-15T15:47:14;5.80;;5.40;;;;;;;
62702;SPS30;66022;50.448;18.122;2023-04-15T15:51:31;5.80;;5.40;;;;;;;
62702;SPS30;66022;50.448;18.122;2023-04-15T15:55:42;6.74;;6.74;;;;;;;
62702;SPS30;66022;50.448;18.122;2023-04-15T15:59:56;6.74;;6.74;;;;;;;
62702;SPS30;66022;50.448;18.122;2023-04-15T16:04:10;6.74;;6.74;;;;;;;
62702;SPS30;66022;50.448;18.122;2023-04-15T16:08:24;10.08;;9.83;;;;;;;
62702;SPS30;66022;50.448;18.122;2023-04-15T16:12:38;10.08;;9.83;;;;;;;
62702;SPS30;66022;50.448;18.122;2023-04-15T16:16:52;12.60;;12.42;;;;;;;
62702;SPS30;66022;50.448;18.122;2023-04-15T16:21:06;12.60;;12.42;;;;;;;
62702;SPS30;66022;50.448;18.122;2023-04-15T16:25:20;12.77;;12.77;;;;;;;
62702;SPS30;66022;50.448;18.122;2023-04-15T16:29:37;12.77;;12.77;;;;;;;
62702;SPS30;66022;50.448;18.122;2023-04-15T16:33:48;12.77;;12.77;;;;;;;
62702;SPS30;66022;50.448;18.122;2023-04-15T16:38:02;7.88;;7.88;;;;;;;
62702;SPS30;66022;50.448;18.122;2023-04-15T16:42:16;7.88;;7.88;;;;;;;
62702;SPS30;66022;50.448;18.122;2023-04-15T16:46:30;5.32;;5.32;;;;;;;
62702;SPS30;66022;50.448;18.122;2023-04-15T16:50:44;5.32;;5.32;;;;;;;
62702;SPS30;66022;50.448;18.122;2023-04-15T16:54:58;6.98;;6.78;;;;;;;
62702;SPS30;66022;50.448;18.122;2023-04-15T16:59:12;6.98;;6.78;;;;;;;
62702;SPS30;66022;50.448;18.122;2023-04-15T17:03:26;6.98;;6.78;;;;;;;
62702;SPS30;66022;50.448;18.122;2023-04-15T17:07:40;7.52;;6.97;;;;;;;
62702;SPS30;66022;50.448;18.122;2023-04-15T17:11:54;7.52;;6.97;;;;;;;
62702;SPS30;66022;50.448;18.122;2023-04-15T17:16:08;8.29;;7.81;;;;;;;
62702;SPS30;66022;50.448;18.122;2023-04-15T17:20:22;8.29;;7.81;;;;;;;
62702;SPS30;66022;50.448;18.122;2023-04-15T17:24:36;10.73;;10.06;;;;;;;
62702;SPS30;66022;50.448;18.122;2023-04-15T17:28:50;10.73;;10.06;;;;;;;
62702;SPS30;66022;50.448;18.122;2023-04-15T17:33:06;10.73;;10.06;;;;;;;
62702;SPS30;66022;50.448;18.122;2023-04-15T17:37:18;14.04;;12.58;;;;;;;
62702;SPS30;66022;50.448;18.122;2023-04-15T17:41:32;14.04;;12.58;;;;;;;
62702;SPS30;66022;50.448;18.122;2023-04-15T17:45:46;8.01;;8.01;;;;;;;
62702;SPS30;66022;50.448;18.122;2023-04-15T17:50:00;8.01;;8.01;;;;;;;
62702;SPS30;66022;50.448;18.122;2023-04-15T17:54:14;9.05;;8.56;;;;;;;
62702;SPS30;66022;50.448;18.122;2023-04-15T17:58:28;9.05;;8.56;;;;;;;
62702;SPS30;66022;50.448;18.122;2023-04-15T18:02:42;9.05;;8.56;;;;;;;
62702;SPS30;66022;50.448;18.122;2023-04-15T18:06:56;12.65;;12.65;;;;;;;
62702;SPS30;66022;50.448;18.122;2023-04-15T18:11:10;12.65;;12.65;;;;;;;
62702;SPS30;66022;50.448;18.122;2023-04-15T18:15:24;9.88;;9.39;;;;;;;
62702;SPS30;66022;50.448;18.122;2023-04-15T18:19:38;9.88;;9.39;;;;;;;
62702;SPS30;66022;50.448;18.122;2023-04-15T18:23:52;9.88;;9.39;;;;;;;
62702;SPS30;66022;50.448;18.122;2023-04-15T18:28:06;9.15;;8.81;;;;;;;
62702;SPS30;66022;50.448;18.122;2023-04-15T18:32:20;9.15;;8.81;;;;;;;
62702;SPS30;66022;50.448;18.122;2023-04-15T18:36:34;8.91;;8.29;;;;;;;
62702;SPS30;66022;50.448;18.122;2023-04-15T18:40:48;8.91;;8.29;;;;;;;
62702;SPS30;66022;50.448;18.122;2023-04-15T18:45:04;10.97;;10.97;;;;;;;
62702;SPS30;66022;50.448;18.122;2023-04-15T18:49:16;10.97;;10.97;;;;;;;
62702;SPS30;66022;50.448;18.122;2023-04-15T18:53:30;10.97;;10.97;;;;;;;
62702;SPS30;66022;50.448;18.122;2023-04-15T18:57:44;7.37;;6.93;;;;;;;
62702;SPS30;66022;50.448;18.122;2023-04-15T19:01:58;7.37;;6.93;;;;;;;
62702;SPS30;66022;50.448;18.122;2023-04-15T19:06:12;8.99;;8.48;;;;;;;
62702;SPS30;66022;50.448;18.122;2023-04-15T19:10:26;8.99;;8.48;;;;;;;
62702;SPS30;66022;50.448;18.122;2023-04-15T19:14:40;10.10;;10.10;;;;;;;
62702;SPS30;66022;50.448;18.122;2023-04-15T19:18:54;10.10;;10.10;;;;;;;
62702;SPS30;66022;50.448;18.122;2023-04-15T19:23:08;10.10;;10.10;;;;;;;
62702;SPS30;66022;50.448;18.122;2023-04-15T19:27:22;14.06;;14.06;;;;;;;
62702;SPS30;66022;50.448;18.122;2023-04-15T19:31:36;14.06;;14.06;;;;;;;
62702;SPS30;66022;50.448;18.122;2023-04-15T19:35:53;31.48;;31.26;;;;;;;
62702;SPS30;66022;50.448;18.122;2023-04-15T19:40:08;31.48;;31.26;;;;;;;
62702;SPS30;66022;50.448;18.122;2023-04-15T19:44:18;26.31;;26.15;;;;;;;
62702;SPS30;66022;50.448;18.122;2023-04-15T19:48:32;26.31;;26.15;;;;;;;
62702;SPS30;66022;50.448;18.122;2023-04-15T19:52:46;26.31;;26.15;;;;;;;
62702;SPS30;66022;50.448;18.122;2023-04-15T19:57:00;28.62;;27.50;;;;;;;
62702;SPS30;66022;50.448;18.122;2023-04-15T20:01:17;28.62;;27.50;;;;;;;
62702;SPS30;66022;50.448;18.122;2023-04-15T20:05:28;34.81;;34.81;;;;;;;
62702;SPS30;66022;50.448;18.122;2023-04-15T20:09:42;34.81;;34.81;;;;;;;
62702;SPS30;66022;50.448;18.122;2023-04-15T20:13:56;34.81;;34.81;;;;;;;
62702;SPS30;66022;50.448;18.122;2023-04-15T20:18:10;21.55;;20.98;;;;;;;
62702;SPS30;66022;50.448;18.122;2023-04-15T20:22:24;21.55;;20.98;;;;;;;
62702;SPS30;66022;50.448;18.122;2023-04-15T20:26:38;14.31;;13.52;;;;;;;
62702;SPS30;66022;50.448;18.122;2023-04-15T20:30:52;14.31;;13.52;;;;;;;
62702;SPS30;66022;50.448;18.122;2023-04-15T20:35:07;31.18;;29.39;;;;;;;
62702;SPS30;66022;50.448;18.122;2023-04-15T20:39:21;31.18;;29.39;;;;;;;
62702;SPS30;66022;50.448;18.122;2023-04-15T20:43:36;31.18;;29.39;;;;;;;
62702;SPS30;66022;50.448;18.122;2023-04-15T20:47:49;11.33;;11.33;;;;;;;
62702;SPS30;66022;50.448;18.122;2023-04-15T20:52:03;11.33;;11.33;;;;;;;
62702;SPS30;66022;50.448;18.122;2023-04-15T20:56:19;19.33;;18.95;;;;;;;
62702;SPS30;66022;50.448;18.122;2023-04-15T21:00:31;19.33;;18.95;;;;;;;
62702;SPS30;66022;50.448;18.122;2023-04-15T21:04:44;21.18;;19.98;;;;;;;
62702;SPS30;66022;50.448;18.122;2023-04-15T21:08:59;21.18;;19.98;;;;;;;
62702;SPS30;66022;50.448;18.122;2023-04-15T21:13:13;21.18;;19.98;;;;;;;
62702;SPS30;66022;50.448;18.122;2023-04-15T21:17:27;18.31;;17.55;;;;;;;
62702;SPS30;66022;50.448;18.122;2023-04-15T21:21:41;18.31;;17.55;;;;;;;
62702;SPS30;66022;50.448;18.122;2023-04-15T21:25:55;15.55;;15.54;;;;;;;
62702;SPS30;66022;50.448;18.122;2023-04-15T21:30:09;15.55;;15.54;;;;;;;
62702;SPS30;66022;50.448;18.122;2023-04-15T21:34:23;28.89;;28.55;;;;;;;
62702;SPS30;66022;50.448;18.122;2023-04-15T21:38:37;28.89;;28.55;;;;;;;
62702;SPS30;66022;50.448;18.122;2023-04-15T21:42:51;28.89;;28.55;;;;;;;
62702;SPS30;66022;50.448;18.122;2023-04-15T21:47:05;19.34;;19.34;;;;;;;
62702;SPS30;66022;50.448;18.122;2023-04-15T21:51:19;19.34;;19.34;;;;;;;
62702;SPS30;66022;50.448;18.122;2023-04-15T21:55:33;33.04;;30.72;;;;;;;
62702;SPS30;66022;50.448;18.122;2023-04-15T21:59:47;33.04;;30.72;;;;;;;
62702;SPS30;66022;50.448;18.122;2023-04-15T22:04:01;33.04;;30.72;;;;;;;
62702;SPS30;66022;50.448;18.122;2023-04-15T22:08:15;21.57;;21.50;;;;;;;
62702;SPS30;66022;50.448;18.122;2023-04-15T22:12:29;21.57;;21.50;;;;;;;
62702;SPS30;66022;50.448;18.122;2023-04-15T22:16:43;23.52;;22.45;;;;;;;
62702;SPS30;66022;50.448;18.122;2023-04-15T22:20:57;23.52;;22.45;;;;;;;
62702;SPS30;66022;50.448;18.122;2023-04-15T22:25:11;22.34;;22.34;;;;;;;
62702;SPS30;66022;50.448;18.122;2023-04-15T22:29:25;22.34;;22.34;;;;;;;
62702;SPS30;66022;50.448;18.122;2023-04-15T22:33:39;22.34;;22.34;;;;;;;
62702;SPS30;66022;50.448;18.122;2023-04-15T22:37:53;21.83;;21.83;;;;;;;
62702;SPS30;66022;50.448;18.122;2023-04-15T22:42:07;21.83;;21.83;;;;;;;
62702;SPS30;66022;50.448;18.122;2023-04-15T22:46:21;22.41;;20.96;;;;;;;
62702;SPS30;66022;50.448;18.122;2023-04-15T22:50:35;22.41;;20.96;;;;;;;
62702;SPS30;66022;50.448;18.122;2023-04-15T22:54:49;16.45;;16.45;;;;;;;
62702;SPS30;66022;50.448;18.122;2023-04-15T22:59:03;16.45;;16.45;;;;;;;
62702;SPS30;66022;50.448;18.122;2023-04-15T23:03:17;16.45;;16.45;;;;;;;
62702;SPS30;66022;50.448;18.122;2023-04-15T23:07:31;16.12;;16.12;;;;;;;
62702;SPS30;66022;50.448;18.122;2023-04-15T23:11:45;16.12;;16.12;;;;;;;
62702;SPS30;66022;50.448;18.122;2023-04-15T23:15:59;22.22;;21.58;;;;;;;
62702;SPS30;66022;50.448;18.122;2023-04-15T23:20:13;22.22;;21.58;;;;;;;
62702;SPS30;66022;50.448;18.122;2023-04-15T23:24:27;24.75;;24.14;;;;;;;
62702;SPS30;66022;50.448;18.122;2023-04-15T23:28:41;24.75;;24.14;;;;;;;
62702;SPS30;66022;50.448;18.122;2023-04-15T23:32:55;24.75;;24.14;;;;;;;
62702;SPS30;66022;50.448;18.122;2023-04-15T23:37:08;20.51;;20.17;;;;;;;
62702;SPS30;66022;50.448;18.122;2023-04-15T23:41:22;20.51;;20.17;;;;;;;
62702;SPS30;66022;50.448;18.122;2023-04-15T23:45:37;18.97;;18.90;;;;;;;
62702;SPS30;66022;50.448;18.122;2023-04-15T23:49:51;18.97;;18.90;;;;;;;
62702;SPS30;66022;50.448;18.122;2023-04-15T23:54:05;18.97;;18.90;;;;;;;